createdAt,value
2019-03-05T00:04:13.259Z,65.10
2019-03-05T00:09:15.728Z,64.79
2019-03-05T00:14:18.930Z,64.43
2019-03-05T00:19:20.651Z,64.20
2019-03-05T00:24:57.062Z,63.98
2019-03-05T00:30:17.861Z,64.00
2019-03-05T00:35:29.553Z,63.47
2019-03-05T00:40:34.971Z,63.24
2019-03-05T00:45:40.444Z,62.98
2019-03-05T00:51:01.229Z,62.99
2019-03-05T00:56:12.466Z,63.18
2019-03-05T01:01:14.924Z,62.95
2019-03-05T01:06:16.865Z,62.78
2019-03-05T01:11:19.272Z,62.71
2019-03-05T01:16:21.751Z,62.50
2019-03-05T01:21:24.183Z,62.57
2019-03-05T01:26:26.640Z,62.56
2019-03-05T01:31:47.392Z,62.22
2019-03-05T01:36:49.873Z,62.21
2019-03-05T01:41:52.317Z,62.11
2019-03-05T01:46:54.771Z,62.00
2019-03-05T01:51:57.237Z,62.07
2019-03-05T01:56:59.693Z,61.98
2019-03-05T02:02:02.148Z,61.96
2019-03-05T02:07:04.603Z,61.81
2019-03-05T02:12:07.059Z,61.91
2019-03-05T02:17:09.543Z,61.90
2019-03-05T02:22:21.285Z,61.84
2019-03-05T02:27:48.605Z,62.00
2019-03-05T02:32:56.991Z,61.89
2019-03-05T02:38:24.220Z,61.79
2019-03-05T02:43:26.675Z,61.81
2019-03-05T02:48:47.640Z,61.89
2019-03-05T02:53:59.026Z,61.91
2019-03-05T02:59:00.949Z,61.84
2019-03-05T03:04:03.400Z,62.34
2019-03-05T03:09:20.869Z,63.55
2019-03-05T03:14:23.331Z,65.28
2019-03-05T03:19:25.787Z,65.84
2019-03-05T03:24:28.225Z,66.63
2019-03-05T03:29:30.697Z,67.49
2019-03-05T03:34:33.209Z,68.21
2019-03-05T03:39:35.586Z,68.66
2019-03-05T03:44:38.060Z,69.10
2019-03-05T03:49:40.510Z,69.13
2019-03-05T03:54:42.966Z,69.47
2019-03-05T03:59:45.431Z,69.75
2019-03-05T04:04:47.876Z,70.00
2019-03-05T04:09:50.327Z,70.26
2019-03-05T04:14:52.790Z,70.76
2019-03-05T04:19:55.256Z,70.83
2019-03-05T04:24:57.698Z,71.05
2019-03-05T04:30:00.396Z,71.46
2019-03-05T04:35:02.627Z,71.16
2019-03-05T04:40:05.096Z,71.25
2019-03-05T04:45:26.093Z,71.01
2019-03-05T04:50:31.394Z,70.96
2019-03-05T04:55:33.843Z,70.85
2019-03-05T05:00:36.292Z,70.77
2019-03-05T05:05:38.760Z,70.80
2019-03-05T05:10:41.212Z,70.47
2019-03-05T05:15:43.661Z,70.04
2019-03-05T05:20:46.116Z,69.89
2019-03-05T05:25:48.589Z,69.82
2019-03-05T05:30:51.031Z,69.62
2019-03-05T05:35:53.494Z,69.12
2019-03-05T05:40:55.940Z,68.75
2019-03-05T05:45:58.402Z,68.47
2019-03-05T05:51:00.864Z,68.07
2019-03-05T05:56:03.322Z,67.83
2019-03-05T06:01:05.771Z,68.08
2019-03-05T06:06:08.217Z,68.21
2019-03-05T06:11:10.676Z,67.61
2019-03-05T06:16:13.127Z,67.49
2019-03-05T06:21:15.582Z,67.35
2019-03-05T06:26:18.044Z,66.62
2019-03-05T06:31:20.501Z,65.92
2019-03-05T06:36:22.970Z,65.69
2019-03-05T06:41:25.446Z,65.51
2019-03-05T06:46:27.915Z,65.11
2019-03-05T06:51:30.389Z,65.18
2019-03-05T06:56:32.838Z,65.10
2019-03-05T07:01:35.288Z,64.96
2019-03-05T07:06:46.741Z,64.91
2019-03-05T07:11:52.242Z,65.26
2019-03-05T07:16:57.658Z,65.03
2019-03-05T07:22:02.780Z,64.73
2019-03-05T07:27:05.320Z,64.67
2019-03-05T07:32:07.732Z,64.18
2019-03-05T07:37:10.215Z,63.26
2019-03-05T07:42:12.674Z,62.77
2019-03-05T07:47:15.165Z,62.35
2019-03-05T07:52:17.621Z,61.86
2019-03-05T07:57:20.081Z,60.67
2019-03-05T08:02:22.562Z,55.07
2019-03-05T08:07:25.127Z,47.79
2019-03-05T08:12:27.493Z,46.75
2019-03-05T08:17:29.967Z,46.44
2019-03-05T08:22:32.436Z,47.09
2019-03-05T08:27:34.900Z,42.85
2019-03-05T08:32:37.358Z,42.99
2019-03-05T08:37:39.836Z,42.74
2019-03-05T08:42:42.320Z,44.87
2019-03-05T08:47:44.773Z,45.89
2019-03-05T08:52:47.302Z,46.12
2019-03-05T08:57:49.686Z,46.90
2019-03-05T09:02:52.175Z,48.36
2019-03-05T09:07:54.641Z,48.49
2019-03-05T09:12:57.100Z,48.62
2019-03-05T09:17:59.578Z,48.77
2019-03-05T09:23:02.041Z,49.66
2019-03-05T09:28:04.498Z,51.16
2019-03-05T09:33:07.135Z,52.47
2019-03-05T09:38:09.441Z,53.08
2019-03-05T09:43:11.914Z,54.29
2019-03-05T09:48:14.388Z,55.35
2019-03-05T09:53:16.834Z,57.70
2019-03-05T09:58:19.298Z,58.39
2019-03-05T10:03:21.780Z,58.87
2019-03-05T10:08:32.020Z,59.53
2019-03-05T10:13:26.739Z,60.08
2019-03-05T10:18:29.571Z,59.82
2019-03-05T10:23:31.963Z,60.09
2019-03-05T10:28:34.432Z,59.80
2019-03-05T10:33:36.921Z,60.01
2019-03-05T10:38:39.438Z,58.71
2019-03-05T10:43:41.846Z,58.66
2019-03-05T10:48:44.310Z,58.59
2019-03-05T10:53:46.779Z,58.26
2019-03-05T10:58:49.259Z,58.02
2019-03-05T11:03:51.731Z,58.00
2019-03-05T11:08:54.204Z,58.20
2019-03-05T11:13:56.674Z,58.21
2019-03-05T11:18:59.127Z,59.13
2019-03-05T11:24:01.596Z,60.21
2019-03-05T11:29:04.063Z,60.77
2019-03-05T11:34:06.533Z,61.34
2019-03-05T11:39:09.000Z,62.55
2019-03-05T11:44:11.457Z,62.82
2019-03-05T11:49:13.949Z,63.46
2019-03-05T11:54:16.433Z,63.00
2019-03-05T11:59:18.907Z,63.24
2019-03-05T12:04:21.372Z,62.13
2019-03-05T12:09:23.866Z,61.63
2019-03-05T12:14:26.324Z,62.15
2019-03-05T12:19:28.811Z,61.91
2019-03-05T12:24:31.282Z,61.68
2019-03-05T12:29:33.786Z,61.78
2019-03-05T12:34:36.270Z,63.41
2019-03-05T12:39:38.733Z,64.10
2019-03-05T12:44:41.202Z,64.50
2019-03-05T12:49:43.705Z,65.34
2019-03-05T12:54:46.196Z,65.58
2019-03-05T12:59:48.685Z,65.78
2019-03-05T13:04:51.148Z,65.61
2019-03-05T13:09:56.878Z,66.32
2019-03-05T13:14:56.062Z,66.73
2019-03-05T13:19:58.520Z,66.41
2019-03-05T13:25:00.989Z,67.69
2019-03-05T13:30:03.467Z,68.03
2019-03-05T13:35:05.949Z,68.25
2019-03-05T13:40:08.428Z,67.44
2019-03-05T13:45:10.891Z,67.21
2019-03-05T13:50:24.129Z,67.48
2019-03-05T13:55:26.907Z,67.48
2019-03-05T14:00:27.075Z,67.74
2019-03-05T14:05:47.879Z,67.08
2019-03-05T14:10:50.366Z,67.48
2019-03-05T14:15:52.868Z,68.39
2019-03-05T14:20:55.311Z,68.28
2019-03-05T14:25:57.827Z,67.80
2019-03-05T14:31:00.261Z,67.18
2019-03-05T14:36:02.732Z,67.00
2019-03-05T14:41:05.242Z,67.21
2019-03-05T14:46:07.691Z,66.98
2019-03-05T14:51:10.167Z,67.29
2019-03-05T14:56:12.781Z,67.58
2019-03-05T15:01:15.228Z,67.34
2019-03-05T15:06:17.715Z,67.46
2019-03-05T15:11:20.195Z,68.86
2019-03-05T15:16:22.680Z,69.27
2019-03-05T15:21:25.105Z,68.76
2019-03-05T15:26:27.582Z,68.50
2019-03-05T15:31:30.056Z,68.14
2019-03-05T15:36:32.519Z,68.61
2019-03-05T15:41:35.032Z,69.26
2019-03-05T15:46:37.432Z,69.24
2019-03-05T15:51:39.988Z,69.72
2019-03-05T15:56:42.409Z,69.97
2019-03-05T16:01:44.880Z,70.13
2019-03-05T16:06:49.657Z,69.81
2019-03-05T16:11:49.847Z,70.21
2019-03-05T16:16:52.857Z,70.26
2019-03-05T16:21:54.790Z,70.82
2019-03-05T16:26:57.893Z,70.88
2019-03-05T16:32:14.958Z,70.73
2019-03-05T16:37:17.434Z,71.06
2019-03-05T16:42:25.902Z,71.31
2019-03-05T16:47:37.465Z,71.69
2019-03-05T16:52:39.929Z,71.96
2019-03-05T16:57:51.275Z,72.24
2019-03-05T17:02:56.307Z,72.37
2019-03-05T17:07:58.917Z,72.89
2019-03-05T17:13:01.413Z,72.97
2019-03-05T17:18:03.883Z,73.12
2019-03-05T17:23:06.361Z,73.43
2019-03-05T17:28:08.812Z,73.43
2019-03-05T17:33:11.317Z,73.88
2019-03-05T17:38:13.778Z,74.52
2019-03-05T17:43:16.464Z,74.40
2019-03-05T17:48:18.928Z,73.97
2019-03-05T17:53:21.388Z,74.35
2019-03-05T17:58:23.852Z,74.69
2019-03-05T18:03:26.321Z,74.71
2019-03-05T18:08:28.804Z,74.86
2019-03-05T18:13:31.271Z,75.03
2019-03-05T18:18:33.726Z,75.15
2019-03-05T18:23:36.185Z,75.27
2019-03-05T18:28:38.670Z,75.41
2019-03-05T18:33:41.133Z,75.35
2019-03-05T18:38:43.622Z,75.53
2019-03-05T18:43:46.090Z,75.69
2019-03-05T18:48:48.562Z,75.82
2019-03-05T18:53:51.030Z,75.82
2019-03-05T18:58:53.514Z,76.02
2019-03-05T19:03:55.996Z,76.15
2019-03-05T19:08:58.460Z,76.12
2019-03-05T19:14:00.936Z,75.73
2019-03-05T19:19:03.406Z,75.99
2019-03-05T19:24:05.880Z,75.92
2019-03-05T19:29:08.358Z,75.88
2019-03-05T19:34:10.834Z,76.05
2019-03-05T19:39:13.297Z,75.89
2019-03-05T19:44:15.780Z,75.97
2019-03-05T19:49:18.250Z,75.88
2019-03-05T19:54:20.725Z,75.62
2019-03-05T19:59:23.191Z,75.72
2019-03-05T20:04:25.677Z,75.76
2019-03-05T20:09:28.146Z,75.73
2019-03-05T20:14:30.628Z,75.69
2019-03-05T20:19:33.120Z,75.72
2019-03-05T20:24:35.564Z,75.66
2019-03-05T20:29:38.016Z,75.65
2019-03-05T20:34:40.503Z,75.86
2019-03-05T20:39:43.018Z,75.78
2019-03-05T20:44:45.467Z,75.77
2019-03-05T20:49:47.933Z,75.63
2019-03-05T20:54:50.394Z,75.98
2019-03-05T20:59:52.882Z,75.75
2019-03-05T21:04:55.410Z,75.65
2019-03-05T21:09:57.869Z,75.81
2019-03-05T21:15:00.480Z,75.98
2019-03-05T21:20:02.973Z,75.68
2019-03-05T21:25:05.459Z,75.88
2019-03-05T21:30:22.830Z,76.09
2019-03-05T21:35:25.294Z,76.05
2019-03-05T21:40:27.796Z,75.82
2019-03-05T21:45:45.306Z,75.95
2019-03-05T21:50:47.757Z,75.99
2019-03-05T21:55:50.222Z,75.96
2019-03-05T22:00:52.702Z,76.08
2019-03-05T22:05:55.167Z,76.07
2019-03-05T22:10:57.674Z,76.06
2019-03-05T22:16:00.139Z,75.72
2019-03-05T22:21:02.602Z,75.79
2019-03-05T22:26:05.085Z,76.00
2019-03-05T22:31:07.575Z,76.36
2019-03-05T22:36:10.034Z,76.16
2019-03-05T22:41:12.497Z,76.68
2019-03-05T22:46:14.960Z,76.90
2019-03-05T22:51:17.421Z,76.92
2019-03-05T22:56:19.905Z,76.83
2019-03-05T23:01:22.401Z,76.87
2019-03-05T23:06:24.848Z,76.73
2019-03-05T23:11:27.331Z,76.65
2019-03-05T23:16:29.784Z,76.79
2019-03-05T23:21:32.279Z,76.83
2019-03-05T23:26:34.741Z,76.91
2019-03-05T23:31:37.212Z,76.82
2019-03-05T23:36:39.682Z,76.51
2019-03-05T23:41:42.152Z,76.66
2019-03-05T23:46:44.604Z,76.98
2019-03-05T23:51:47.071Z,77.00
2019-03-05T23:56:49.542Z,77.10
